createdAt,value
2023-04-22T00:02:25.322Z,101084.66
2023-04-22T00:07:47.620Z,101082.16
2023-04-22T00:13:09.897Z,101079.45
2023-04-22T00:18:32.280Z,101070.89
2023-04-22T00:23:55.111Z,101069.86
2023-04-22T00:29:17.444Z,101057.80
2023-04-22T00:34:39.695Z,101058.04
2023-04-22T00:40:02.064Z,101063.45
2023-04-22T00:45:27.668Z,101059.92
2023-04-22T00:50:49.914Z,101057.69
2023-04-22T00:56:13.203Z,101047.63
2023-04-22T01:01:35.779Z,101047.91
2023-04-22T01:06:59.700Z,101048.22
2023-04-22T01:12:22.074Z,101047.34
2023-04-22T01:17:44.724Z,101044.70
2023-04-22T01:23:10.546Z,101050.98
2023-04-22T01:28:33.721Z,101051.92
2023-04-22T01:33:57.232Z,101050.34
2023-04-22T01:39:20.006Z,101051.52
2023-04-22T01:44:42.263Z,101046.58
2023-04-22T01:50:04.536Z,101042.89
2023-04-22T01:55:27.633Z,101045.78
2023-04-22T02:00:50.644Z,101043.33
2023-04-22T02:06:13.086Z,101042.16
2023-04-22T02:11:35.890Z,101035.57
2023-04-22T02:17:00.002Z,101030.59
2023-04-22T02:22:23.590Z,101027.78
2023-04-22T02:27:45.957Z,101028.22
2023-04-22T02:33:08.250Z,101022.90
2023-04-22T02:38:31.440Z,101025.67
2023-04-22T02:43:53.687Z,101020.28
2023-04-22T02:49:15.907Z,101022.90
2023-04-22T02:54:38.276Z,101019.42
2023-04-22T03:00:00.726Z,101019.23
2023-04-22T03:05:23.509Z,101017.58
2023-04-22T03:10:45.754Z,101015.64
2023-04-22T03:16:08.022Z,101026.06
2023-04-22T03:21:30.381Z,101028.14
2023-04-22T03:26:52.791Z,101028.47
2023-04-22T03:32:16.209Z,101023.76
2023-04-22T03:37:38.703Z,101027.20
2023-04-22T03:43:01.059Z,101020.23
2023-04-22T03:48:23.445Z,101027.28
2023-04-22T03:53:45.781Z,101026.27
2023-04-22T03:59:08.164Z,101025.41
2023-04-22T04:04:30.865Z,101022.47
2023-04-22T04:09:53.661Z,101019.31
2023-04-22T04:15:17.788Z,101011.44
2023-04-22T04:20:40.008Z,101010.19
2023-04-22T04:26:03.014Z,101009.79
2023-04-22T04:31:25.892Z,101015.89
2023-04-22T04:36:49.600Z,101016.19
2023-04-22T04:42:12.520Z,101023.87
2023-04-22T04:47:34.857Z,101018.42
2023-04-22T04:52:57.191Z,101015.02
2023-04-22T04:58:19.796Z,101023.83
2023-04-22T05:03:42.250Z,101016.70
2023-04-22T05:09:05.412Z,101017.91
2023-04-22T05:14:27.692Z,101013.16
2023-04-22T05:19:50.158Z,101006.70
2023-04-22T05:25:13.316Z,101020.88
2023-04-22T05:30:35.623Z,101014.52
2023-04-22T05:35:58.499Z,101021.53
2023-04-22T05:41:20.806Z,101017.95
2023-04-22T05:46:43.277Z,101023.72
2023-04-22T05:52:05.555Z,101019.73
2023-04-22T05:57:27.971Z,101021.11
2023-04-22T06:02:50.387Z,101014.14
2023-04-22T06:08:13.153Z,101018.20
2023-04-22T06:13:36.051Z,101009.08
2023-04-22T06:18:58.607Z,101003.15
2023-04-22T06:24:22.774Z,100999.13
2023-04-22T06:29:47.641Z,101007.45
2023-04-22T06:35:10.459Z,100990.77
2023-04-22T06:40:35.910Z,100996.14
2023-04-22T06:46:00.553Z,100991.62
2023-04-22T06:51:24.363Z,100990.38
2023-04-22T06:56:49.075Z,100990.73
2023-04-22T07:02:14.641Z,100988.80
2023-04-22T07:07:39.714Z,100990.53
2023-04-22T07:13:04.217Z,100993.73
2023-04-22T07:18:29.156Z,100996.61
2023-04-22T07:23:52.949Z,101007.20
2023-04-22T07:29:17.091Z,101001.62
2023-04-22T07:34:41.772Z,100995.36
2023-04-22T07:40:06.168Z,100993.80
2023-04-22T07:45:31.208Z,100996.10
2023-04-22T07:50:55.905Z,100984.30
2023-04-22T07:56:23.240Z,100985.33
2023-04-22T08:01:47.818Z,100985.23
2023-04-22T08:07:31.045Z,100987.88
2023-04-22T08:12:38.763Z,100981.80
2023-04-22T08:18:03.576Z,100978.92
2023-04-22T08:23:28.839Z,100977.66
2023-04-22T08:28:53.591Z,100972.17
2023-04-22T08:34:17.844Z,100970.80
2023-04-22T08:39:42.558Z,100970.42
2023-04-22T08:45:10.200Z,100968.03
2023-04-22T08:50:34.447Z,100967.11
2023-04-22T08:55:58.560Z,100968.33
2023-04-22T09:01:24.231Z,100961.44
2023-04-22T09:06:48.901Z,100960.08
2023-04-22T09:12:12.316Z,100961.48
2023-04-22T09:17:49.280Z,100962.80
2023-04-22T09:23:15.044Z,100958.08
2023-04-22T09:28:39.118Z,100951.47
2023-04-22T09:34:06.277Z,100943.92
2023-04-22T09:39:30.652Z,100944.66
2023-04-22T09:44:56.008Z,100927.88
2023-04-22T09:50:22.383Z,100927.16
2023-04-22T09:55:49.995Z,100916.80
2023-04-22T10:01:19.225Z,100903.36
2023-04-22T10:06:44.069Z,100905.19
2023-04-22T10:12:09.685Z,100902.57
2023-04-22T10:17:38.394Z,100900.45
2023-04-22T10:23:04.834Z,100900.30
2023-04-22T10:28:32.100Z,100885.95
2023-04-22T10:33:56.706Z,100883.80
2023-04-22T10:39:23.972Z,100876.11
2023-04-22T10:45:08.354Z,100867.55
2023-04-22T10:50:40.955Z,100863.12
2023-04-22T10:56:12.416Z,100854.76
2023-04-22T11:01:36.903Z,100848.59
2023-04-22T11:13:00.055Z,100829.03
2023-04-22T11:18:28.020Z,100835.88
2023-04-22T11:24:00.645Z,100830.63
2023-04-22T11:29:23.632Z,100827.78
2023-04-22T11:34:46.449Z,100817.58
2023-04-22T11:40:21.652Z,100819.16
2023-04-22T11:45:37.655Z,100804.77
2023-04-22T11:51:17.406Z,100810.89
2023-04-22T11:56:42.256Z,100807.39
2023-04-22T12:02:05.992Z,100803.24
2023-04-22T12:07:30.199Z,100796.45
2023-04-22T12:12:52.689Z,100792.98
2023-04-22T12:18:15.022Z,100777.79
2023-04-22T12:23:40.368Z,100779.51
2023-04-22T12:29:06.546Z,100765.55
2023-04-22T12:34:28.858Z,100769.73
2023-04-22T12:39:51.662Z,100759.00
2023-04-22T12:45:16.988Z,100746.42
2023-04-22T12:50:40.719Z,100737.58
2023-04-22T12:56:03.866Z,100740.98
2023-04-22T13:01:26.203Z,100729.63
2023-04-22T13:06:50.335Z,100711.93
2023-04-22T13:12:12.968Z,100717.12
2023-04-22T13:17:35.240Z,100702.02
2023-04-22T13:22:57.742Z,100708.23
2023-04-22T13:28:20.057Z,100697.89
2023-04-22T13:33:44.486Z,100697.38
2023-04-22T13:39:09.267Z,100695.61
2023-04-22T13:44:32.527Z,100697.73
2023-04-22T13:49:54.861Z,100688.66
2023-04-22T13:55:17.272Z,100685.74
2023-04-22T14:00:40.867Z,100676.63
2023-04-22T14:06:04.140Z,100670.69
2023-04-22T14:11:26.893Z,100673.64
2023-04-22T14:16:50.962Z,100663.88
2023-04-22T14:22:13.287Z,100660.75
2023-04-22T14:27:36.185Z,100663.41
2023-04-22T14:32:58.649Z,100653.59
2023-04-22T14:38:24.189Z,100641.86
2023-04-22T14:43:47.268Z,100644.19
2023-04-22T14:49:09.474Z,100636.03
2023-04-22T14:54:31.761Z,100641.94
2023-04-22T14:59:54.369Z,100642.47
2023-04-22T15:05:17.209Z,100634.99
2023-04-22T15:10:41.600Z,100629.38
2023-04-22T15:16:04.529Z,100631.59
2023-04-22T15:21:26.867Z,100609.05
2023-04-22T15:26:49.146Z,100615.56
2023-04-22T15:32:11.484Z,100608.33
2023-04-22T15:37:35.483Z,100616.33
2023-04-22T15:42:57.864Z,100612.75
2023-04-22T15:48:21.239Z,100609.24
2023-04-22T15:53:45.149Z,100610.80
2023-04-22T15:59:07.968Z,100600.44
2023-04-22T16:04:31.486Z,100604.98
2023-04-22T16:09:53.926Z,100604.05
2023-04-22T16:15:18.124Z,100591.34
2023-04-22T16:20:41.690Z,100597.88
2023-04-22T16:26:04.846Z,100599.00
2023-04-22T16:31:27.129Z,100590.59
2023-04-22T16:36:49.432Z,100600.88
2023-04-22T16:42:12.550Z,100588.89
2023-04-22T16:47:34.820Z,100593.13
2023-04-22T16:52:57.672Z,100591.45
2023-04-22T16:58:19.969Z,100584.81
2023-04-22T17:03:42.676Z,100581.50
2023-04-22T17:09:06.550Z,100584.69
2023-04-22T17:14:30.045Z,100576.22
2023-04-22T17:19:52.312Z,100577.07
2023-04-22T17:25:14.794Z,100567.30
2023-04-22T17:30:37.166Z,100571.44
2023-04-22T17:36:00.349Z,100570.59
2023-04-22T17:41:23.629Z,100566.36
2023-04-22T17:46:47.409Z,100560.75
2023-04-22T17:52:10.424Z,100572.94
2023-04-22T17:57:33.423Z,100574.44
2023-04-22T18:02:58.329Z,100576.63
2023-04-22T18:08:22.340Z,100574.44
2023-04-22T18:13:46.955Z,100576.30
2023-04-22T18:19:11.175Z,100573.36
2023-04-22T18:24:36.973Z,100568.70
2023-04-22T18:30:01.062Z,100573.09
2023-04-22T18:35:25.152Z,100580.54
2023-04-22T18:40:49.854Z,100587.53
2023-04-22T18:46:14.752Z,100584.22
2023-04-22T18:51:40.006Z,100582.95
2023-04-22T18:57:04.326Z,100587.38
2023-04-22T19:02:30.929Z,100583.98
2023-04-22T19:07:53.980Z,100583.22
2023-04-22T19:13:29.143Z,100573.95
2023-04-22T19:18:47.437Z,100567.30
2023-04-22T19:24:14.735Z,100576.25
2023-04-22T19:29:40.368Z,100572.45
2023-04-22T19:35:10.078Z,100567.66
2023-04-22T19:40:34.290Z,100557.32
2023-04-22T19:46:05.129Z,100560.34
2023-04-22T19:51:28.821Z,100556.34
2023-04-22T19:56:53.276Z,100564.65
2023-04-22T20:02:16.146Z,100561.59
2023-04-22T20:07:39.174Z,100559.77
2023-04-22T20:13:04.795Z,100567.23
2023-04-22T20:18:27.394Z,100564.04
2023-04-22T20:23:52.448Z,100557.45
2023-04-22T20:29:15.277Z,100548.05
2023-04-22T20:34:38.196Z,100561.72
2023-04-22T20:40:03.865Z,100550.85
2023-04-22T20:45:27.651Z,100551.30
2023-04-22T20:50:50.035Z,100555.34
2023-04-22T20:56:13.696Z,100551.41
2023-04-22T21:01:36.544Z,100548.97
2023-04-22T21:07:07.126Z,100550.39
2023-04-22T21:12:30.758Z,100550.75
2023-04-22T21:17:56.883Z,100546.79
2023-04-22T21:23:21.243Z,100544.02
2023-04-22T21:28:44.993Z,100544.35
2023-04-22T21:34:09.052Z,100540.20
2023-04-22T21:39:31.326Z,100540.69
2023-04-22T21:44:55.130Z,100546.03
2023-04-22T21:50:19.622Z,100546.73
2023-04-22T21:55:41.728Z,100549.69
2023-04-22T22:01:04.041Z,100540.30
2023-04-22T22:06:27.292Z,100544.88
2023-04-22T22:11:49.558Z,100541.48
2023-04-22T22:17:11.896Z,100548.95
2023-04-22T22:22:34.287Z,100544.16
2023-04-22T22:27:58.118Z,100544.16
2023-04-22T22:33:20.438Z,100544.16
2023-04-22T22:38:42.794Z,100541.95
2023-04-22T22:44:05.120Z,100547.47
2023-04-22T22:49:28.446Z,100542.90
2023-04-22T22:54:54.658Z,100540.89
2023-04-22T23:00:17.890Z,100537.59
2023-04-22T23:05:41.423Z,100531.61
2023-04-22T23:11:04.163Z,100531.69
2023-04-22T23:16:27.936Z,100534.77
2023-04-22T23:21:53.038Z,100531.34
2023-04-22T23:27:16.859Z,100531.25
2023-04-22T23:32:41.529Z,100530.28
2023-04-22T23:38:04.726Z,100516.66
2023-04-22T23:43:27.019Z,100526.54
2023-04-22T23:48:49.607Z,100520.33
2023-04-22T23:54:12.069Z,100518.05
2023-04-22T23:59:34.794Z,100522.55
